Time;durP1;ratioP1;P1;durP2;ratioP2;P2;SDS_P1;SDS_P2;PMS_P1;PMS_P2;Temp;Humidity;BMP_temperature;BMP_pressure;BME280_temperature;BME280_humidity;BME280_pressure;Samples;Min_cycle;Max_cycle;Signal;HPM_P1;HPM_P2
2023/05/17 00:02:10;;;;;;;1999.90;999.90;;;;;;;18.98;44.75;102626.19;5064153;28;20021;-67
2023/05/17 00:04:35;;;;;;;1999.90;999.90;;;;;;;19.00;44.21;102613.78;5054564;28;20032;-67
2023/05/17 00:07:00;;;;;;;1999.90;999.90;;;;;;;19.20;44.10;102617.88;5062266;28;20025;-67
2023/05/17 00:09:26;;;;;;;1999.90;999.90;;;;;;;18.74;45.06;102612.41;5058637;28;20024;-67
2023/05/17 00:11:51;;;;;;;1999.90;999.90;;;;;;;18.60;45.16;102614.38;5058088;28;20028;-67
2023/05/17 00:14:17;;;;;;;1999.90;999.90;;;;;;;19.42;44.09;102613.91;5058715;28;20028;-67
2023/05/17 00:16:42;;;;;;;1999.90;999.90;;;;;;;19.71;43.51;102607.13;5061717;28;20037;-67
2023/05/17 00:19:10;;;;;;;1999.90;999.90;;;;;;;19.72;43.42;102606.25;5063293;28;20035;-67
2023/05/17 00:21:36;;;;;;;1999.90;999.90;;;;;;;20.06;42.51;102612.63;5059513;28;20108;-67
2023/05/17 00:24:01;;;;;;;1999.90;999.90;;;;;;;19.68;44.16;102609.88;5060915;28;20073;-67
2023/05/17 00:26:27;;;;;;;1999.90;999.90;;;;;;;19.82;43.43;102623.78;5063094;28;20491;-67
2023/05/17 00:28:52;;;;;;;1999.90;999.90;;;;;;;20.38;42.43;102625.22;5063696;28;20460;-67
2023/05/17 00:31:17;;;;;;;1999.90;999.90;;;;;;;19.49;43.93;102628.81;5065914;28;20036;-67
2023/05/17 00:33:43;;;;;;;1999.90;999.90;;;;;;;19.40;43.71;102628.97;5067873;28;20480;-67
2023/05/17 00:36:08;;;;;;;1999.90;999.90;;;;;;;19.48;44.23;102627.06;5065661;28;20035;-67
2023/05/17 00:38:33;;;;;;;1999.90;999.90;;;;;;;19.74;43.44;102623.03;5062450;28;20532;-67
2023/05/17 00:40:59;;;;;;;1999.90;999.90;;;;;;;19.27;44.30;102614.19;5062736;28;20111;-67
2023/05/17 00:43:25;;;;;;;1999.90;999.90;;;;;;;19.91;43.13;102609.44;5055008;28;20487;-67
2023/05/17 00:45:51;;;;;;;1999.90;999.90;;;;;;;19.28;43.99;102614.16;5059243;28;20128;-67
2023/05/17 00:48:17;;;;;;;1999.90;999.90;;;;;;;20.06;42.52;102617.94;5058076;28;20040;-67
2023/05/17 00:50:43;;;;;;;1999.90;999.90;;;;;;;19.43;43.95;102620.94;5054087;28;20114;-67
2023/05/17 00:53:14;;;;;;;1999.90;999.90;;;;;;;19.65;43.53;102610.78;5061293;28;20083;-67
2023/05/17 00:55:41;;;;;;;1999.90;999.90;;;;;;;19.76;43.65;102610.59;5054973;28;20045;-67
2023/05/17 00:58:07;;;;;;;1999.90;999.90;;;;;;;19.39;44.29;102613.97;5063595;28;20174;-67
2023/05/17 01:00:32;;;;;;;1999.90;999.90;;;;;;;19.82;43.24;102621.13;5049874;28;20556;-67
2023/05/17 01:02:58;;;;;;;1999.90;999.90;;;;;;;19.48;44.31;102616.44;5052595;28;20029;-67
2023/05/17 01:05:23;;;;;;;1999.90;999.90;;;;;;;19.81;43.37;102608.75;5062202;28;20029;-67
2023/05/17 01:07:48;;;;;;;1999.90;999.90;;;;;;;20.07;43.37;102606.44;5060521;28;20033;-67
2023/05/17 01:10:14;;;;;;;1999.90;999.90;;;;;;;19.81;43.43;102616.72;5057925;28;20366;-68
2023/05/17 01:13:02;;;;;;;1999.90;999.90;;;;;;;19.75;43.08;102619.44;5056825;28;20027;-67
2023/05/17 01:15:31;;;;;;;1999.90;999.90;;;;;;;19.41;44.15;102620.13;5064239;28;20021;-67
2023/05/17 01:18:15;;;;;;;1999.90;999.90;;;;;;;19.07;44.88;102620.72;5058737;28;20392;-67
2023/05/17 01:20:44;;;;;;;1999.90;999.90;;;;;;;19.42;44.76;102613.91;5067548;28;20024;-67
2023/05/17 01:23:40;;;;;;;1999.90;999.90;;;;;;;19.72;43.32;102603.59;5063247;28;20025;-67
2023/05/17 01:26:18;;;;;;;1999.90;999.90;;;;;;;20.02;43.73;102606.53;5045857;28;20036;-67
2023/05/17 01:28:47;;;;;;;1999.90;999.90;;;;;;;19.97;43.37;102608.41;5063187;28;20068;-67
2023/05/17 01:31:13;;;;;;;1999.90;999.90;;;;;;;19.87;43.41;102606.88;5056223;28;20056;-67
2023/05/17 01:33:39;;;;;;;1999.90;999.90;;;;;;;20.06;43.41;102604.69;5067277;28;20524;-67
2023/05/17 01:36:05;;;;;;;1999.90;999.90;;;;;;;20.02;43.19;102606.53;5054862;28;20027;-67
2023/05/17 01:38:30;;;;;;;1999.90;999.90;;;;;;;19.62;44.12;102608.22;5066544;28;20029;-67
2023/05/17 01:41:04;;;;;;;1999.90;999.90;;;;;;;18.31;47.02;102618.34;5060832;28;20036;-67
2023/05/17 01:43:46;;;;;;;1999.90;999.90;;;;;;;19.40;44.93;102615.72;5067071;28;20024;-67
2023/05/17 01:46:25;;;;;;;1999.90;999.90;;;;;;;20.06;43.27;102613.53;5066785;28;20024;-67
2023/05/17 01:49:19;;;;;;;1999.90;999.90;;;;;;;19.63;44.23;102609.06;5076704;28;20106;-67
2023/05/17 01:52:02;;;;;;;1999.90;999.90;;;;;;;19.89;43.45;102615.66;5051792;28;20394;-67
2023/05/17 01:54:34;;;;;;;1999.90;999.90;;;;;;;19.80;43.65;102616.75;5064801;28;20032;-67
2023/05/17 01:57:03;;;;;;;1999.90;999.90;;;;;;;19.23;44.93;102617.78;5054990;28;20171;-67
2023/05/17 01:59:32;;;;;;;1999.90;999.90;;;;;;;19.38;44.79;102619.28;5067324;28;20086;-67
2023/05/17 02:02:04;;;;;;;1999.90;999.90;;;;;;;19.81;43.85;102614.06;5065402;28;20127;-67
2023/05/17 02:04:30;;;;;;;1999.90;999.90;;;;;;;18.99;45.63;102617.34;5064938;28;20043;-67
2023/05/17 02:06:55;;;;;;;1999.90;999.90;;;;;;;19.46;44.79;102607.63;5067127;28;20477;-67
2023/05/17 02:09:21;;;;;;;1999.90;999.90;;;;;;;19.35;45.43;102606.97;5069442;28;20016;-68
2023/05/17 02:11:46;;;;;;;1999.90;999.90;;;;;;;19.63;44.24;102598.47;5068609;28;20027;-67
2023/05/17 02:14:11;;;;;;;1999.90;999.90;;;;;;;19.46;44.59;102614.72;5064769;28;20016;-67
2023/05/17 02:16:37;;;;;;;1999.90;999.90;;;;;;;19.17;45.36;102615.28;5067748;28;20028;-67
2023/05/17 02:19:02;;;;;;;1999.90;999.90;;;;;;;19.47;44.58;102613.81;5065468;28;20061;-67
2023/05/17 02:21:27;;;;;;;1999.90;999.90;;;;;;;19.54;45.05;102609.28;5064566;28;20062;-67
2023/05/17 02:23:53;;;;;;;1999.90;999.90;;;;;;;19.36;44.83;102621.97;5060030;28;20489;-67
2023/05/17 02:26:18;;;;;;;1999.90;999.90;;;;;;;19.05;45.37;102622.50;5065468;28;20058;-67
2023/05/17 02:28:43;;;;;;;1999.90;999.90;;;;;;;19.46;44.75;102618.22;5060551;28;20131;-67
2023/05/17 02:31:09;;;;;;;1999.90;999.90;;;;;;;19.42;44.87;102621.84;5056989;28;20090;-67
2023/05/17 02:33:34;;;;;;;1999.90;999.90;;;;;;;18.47;46.73;102614.56;5064728;28;20035;-67
2023/05/17 02:36:00;;;;;;;1999.90;999.90;;;;;;;19.19;44.88;102616.97;5067778;28;20036;-67
2023/05/17 02:38:25;;;;;;;1999.90;999.90;;;;;;;19.42;45.40;102616.53;5058000;28;20527;-67
2023/05/17 02:40:50;;;;;;;1999.90;999.90;;;;;;;19.30;45.08;102617.66;5055659;28;20032;-67
2023/05/17 02:43:16;;;;;;;1999.90;999.90;;;;;;;19.50;44.81;102617.28;5064680;28;20067;-67
2023/05/17 02:45:43;;;;;;;1999.90;999.90;;;;;;;19.82;43.61;102604.31;5063605;28;20024;-67
2023/05/17 02:48:08;;;;;;;1999.90;999.90;;;;;;;18.56;46.78;102623.28;5057705;28;20111;-68
2023/05/17 02:50:34;;;;;;;1999.90;999.90;;;;;;;19.39;45.50;102627.22;5059942;28;20032;-67
2023/05/17 02:52:59;;;;;;;1999.90;999.90;;;;;;;19.63;44.33;102612.63;5062470;28;20039;-67
2023/05/17 02:55:25;;;;;;;1999.90;999.90;;;;;;;19.11;45.93;102621.53;5067268;28;20135;-67
2023/05/17 02:57:50;;;;;;;1999.90;999.90;;;;;;;19.47;45.15;102624.44;5085427;28;20476;-67
2023/05/17 03:00:16;;;;;;;1999.90;999.90;;;;;;;19.86;44.10;102621.91;5059022;28;20060;-67
2023/05/17 03:02:41;;;;;;;1999.90;999.90;;;;;;;19.94;43.82;102624.41;5064616;28;20036;-68
2023/05/17 03:05:07;;;;;;;1999.90;999.90;;;;;;;19.74;44.18;102628.31;5066988;28;20043;-67
2023/05/17 03:07:32;;;;;;;1999.90;999.90;;;;;;;19.15;45.77;102632.06;5063476;28;20028;-67
2023/05/17 03:09:58;;;;;;;1999.90;999.90;;;;;;;19.78;44.61;102629.13;5056683;28;20043;-67
2023/05/17 03:12:23;;;;;;;1999.90;999.90;;;;;;;19.04;45.94;102636.69;5058469;28;20155;-67
2023/05/17 03:14:48;;;;;;;1999.90;999.90;;;;;;;18.46;47.23;102626.09;5068277;28;20484;-67
2023/05/17 03:17:14;;;;;;;1999.90;999.90;;;;;;;19.54;44.87;102636.66;5067599;28;20058;-67
2023/05/17 03:19:39;;;;;;;1999.90;999.90;;;;;;;19.11;45.65;102637.44;5067380;28;20021;-67
2023/05/17 03:22:05;;;;;;;1999.90;999.90;;;;;;;18.90;46.52;102639.53;5067093;28;20029;-67
2023/05/17 03:24:30;;;;;;;1999.90;999.90;;;;;;;19.79;44.31;102636.19;5066147;28;20028;-67
2023/05/17 03:26:55;;;;;;;1999.90;999.90;;;;;;;19.20;45.38;102637.28;5068207;28;20036;-67
2023/05/17 03:29:21;;;;;;;1999.90;999.90;;;;;;;19.17;45.83;102641.78;5066802;28;20395;-67
2023/05/17 03:31:46;;;;;;;1999.90;999.90;;;;;;;18.94;46.53;102641.25;5065613;28;20449;-67
2023/05/17 03:34:12;;;;;;;1999.90;999.90;;;;;;;19.68;44.69;102636.38;5063564;28;20025;-68
2023/05/17 03:36:38;;;;;;;1999.90;999.90;;;;;;;19.41;44.73;102636.03;5059824;28;20028;-67
2023/05/17 03:39:04;;;;;;;1999.90;999.90;;;;;;;19.46;44.59;102644.75;5064670;28;20024;-67
2023/05/17 03:41:30;;;;;;;1999.90;999.90;;;;;;;19.50;45.00;102651.75;5067855;28;20040;-67
2023/05/17 03:43:56;;;;;;;1999.90;999.90;;;;;;;19.28;45.29;102639.81;5066892;28;20029;-67
2023/05/17 03:46:21;;;;;;;1999.90;999.90;;;;;;;19.93;43.91;102644.75;5052776;28;20074;-67
2023/05/17 03:48:47;;;;;;;1999.90;999.90;;;;;;;19.96;44.11;102651.78;5058001;28;20025;-67
2023/05/17 03:51:12;;;;;;;1999.90;999.90;;;;;;;19.86;44.30;102658.19;5061542;28;20071;-67
2023/05/17 03:53:42;;;;;;;1999.90;999.90;;;;;;;19.71;45.16;102665.50;5057814;28;20377;-67
2023/05/17 03:56:07;;;;;;;1999.90;999.90;;;;;;;19.87;44.21;102659.94;5055641;28;20178;-67
2023/05/17 03:58:33;;;;;;;1999.90;999.90;;;;;;;19.24;45.54;102669.91;5061436;28;20115;-67
2023/05/17 04:00:58;;;;;;;1999.90;999.90;;;;;;;20.04;43.85;102668.41;5066294;28;20032;-67
2023/05/17 04:03:23;;;;;;;1999.90;999.90;;;;;;;18.70;47.05;102673.38;5065911;28;20029;-67
2023/05/17 04:05:49;;;;;;;1999.90;999.90;;;;;;;19.54;45.30;102673.78;5065364;28;20115;-68
2023/05/17 04:08:15;;;;;;;1999.90;999.90;;;;;;;19.83;44.75;102673.25;5058901;28;20047;-68
2023/05/17 04:10:41;;;;;;;1999.90;999.90;;;;;;;19.99;44.01;102675.63;5059955;28;20478;-68
2023/05/17 04:13:08;;;;;;;1999.90;999.90;;;;;;;19.57;45.44;102678.16;5065753;28;20091;-67
2023/05/17 04:15:34;;;;;;;1999.90;999.90;;;;;;;19.48;44.75;102693.34;5064907;28;20044;-67
2023/05/17 04:17:59;;;;;;;1999.90;999.90;;;;;;;18.47;46.31;102694.00;5066451;28;20151;-67
2023/05/17 04:20:24;;;;;;;1999.90;999.90;;;;;;;19.49;45.20;102695.09;5066835;28;20073;-67
2023/05/17 04:22:50;;;;;;;1999.90;999.90;;;;;;;19.48;44.08;102701.31;5062243;28;20408;-67
2023/05/17 04:25:16;;;;;;;1999.90;999.90;;;;;;;19.23;44.20;102699.97;5053860;28;20040;-67
2023/05/17 04:27:41;;;;;;;1999.90;999.90;;;;;;;19.55;43.36;102701.19;5066593;28;20028;-67
2023/05/17 04:30:07;;;;;;;1999.90;999.90;;;;;;;18.06;45.24;102705.13;5066722;28;20023;-67
2023/05/17 04:32:33;;;;;;;1999.90;999.90;;;;;;;18.82;44.17;102700.59;5063692;28;20023;-66
2023/05/17 04:34:59;;;;;;;1999.90;999.90;;;;;;;19.27;43.05;102709.63;5056740;28;20035;-66
2023/05/17 04:37:24;;;;;;;1999.90;999.90;;;;;;;19.89;42.02;102716.50;5059216;28;20111;-67
2023/05/17 04:39:51;;;;;;;1999.90;999.90;;;;;;;19.45;42.34;102717.28;5064106;28;20024;-66
2023/05/17 04:42:17;;;;;;;1999.90;999.90;;;;;;;19.70;42.53;102722.13;5055041;28;20020;-66
2023/05/17 04:44:42;;;;;;;1999.90;999.90;;;;;;;19.86;42.43;102721.88;5060411;28;20557;-67
2023/05/17 04:47:08;;;;;;;1999.90;999.90;;;;;;;20.46;39.68;102724.16;5057869;28;20068;-67
2023/05/17 04:49:33;;;;;;;1999.90;999.90;;;;;;;20.47;40.60;102731.25;5065109;28;20032;-67
2023/05/17 04:51:59;;;;;;;1999.90;999.90;;;;;;;19.85;40.33;102736.03;5063783;28;20249;-66
2023/05/17 04:54:25;;;;;;;1999.90;999.90;;;;;;;20.46;39.68;102728.63;5062331;28;20510;-67
2023/05/17 04:56:50;;;;;;;1999.90;999.90;;;;;;;19.56;40.49;102740.94;5060343;28;20497;-66
2023/05/17 04:59:16;;;;;;;1999.90;999.90;;;;;;;19.94;39.53;102746.47;5056083;28;20115;-66
2023/05/17 05:01:41;;;;;;;1999.90;999.90;;;;;;;19.79;40.54;102748.47;5063360;28;20119;-66
2023/05/17 05:04:07;;;;;;;1999.90;999.90;;;;;;;19.11;41.28;102752.28;5067547;28;20028;-66
2023/05/17 05:06:33;;;;;;;1999.90;999.90;;;;;;;19.41;41.19;102758.00;5067324;28;20020;-66
2023/05/17 05:09:00;;;;;;;1999.90;999.90;;;;;;;20.28;39.44;102761.75;5062543;28;20237;-67
2023/05/17 05:11:25;;;;;;;1999.90;999.90;;;;;;;20.22;39.68;102764.50;5065949;28;20086;-67
2023/05/17 05:13:50;;;;;;;1999.90;999.90;;;;;;;19.64;40.59;102764.69;5067335;28;20024;-66
2023/05/17 05:16:16;;;;;;;1999.90;999.90;;;;;;;19.40;41.00;102764.19;5058620;28;20111;-66
2023/05/17 05:18:41;;;;;;;1999.90;999.90;;;;;;;20.21;39.66;102776.94;5062041;28;20108;-67
2023/05/17 05:21:06;;;;;;;1999.90;999.90;;;;;;;20.35;39.29;102774.00;5058254;28;20044;-66
2023/05/17 05:23:32;;;;;;;1999.90;999.90;;;;;;;20.27;39.33;102778.56;5053250;28;20029;-66
2023/05/17 05:25:57;;;;;;;1999.90;999.90;;;;;;;19.94;39.80;102778.31;5068896;28;20044;-66
2023/05/17 05:28:22;;;;;;;1999.90;999.90;;;;;;;19.76;40.34;102777.72;5064526;28;20483;-67
2023/05/17 05:30:48;;;;;;;1999.90;999.90;;;;;;;19.79;40.21;102785.63;5067458;28;20412;-67
2023/05/17 05:33:13;;;;;;;1999.90;999.90;;;;;;;18.83;41.88;102791.50;5067686;28;20024;-66
2023/05/17 05:35:39;;;;;;;1999.90;999.90;;;;;;;19.54;40.98;102793.13;5068552;28;20032;-66
2023/05/17 05:38:04;;;;;;;1999.90;999.90;;;;;;;20.66;38.89;102790.16;5062189;28;20032;-66
2023/05/17 05:40:29;;;;;;;1999.90;999.90;;;;;;;18.93;41.68;102802.91;5064073;28;20113;-66
2023/05/17 05:42:55;;;;;;;1999.90;999.90;;;;;;;19.55;40.51;102801.94;5064884;28;20028;-67
2023/05/17 05:45:20;;;;;;;1999.90;999.90;;;;;;;19.09;41.82;102809.72;5069496;28;20028;-67
2023/05/17 05:47:46;;;;;;;1999.90;999.90;;;;;;;19.76;39.82;102812.22;5068441;28;20515;-66
2023/05/17 05:50:11;;;;;;;1999.90;999.90;;;;;;;18.31;42.29;102814.22;5057666;28;20024;-66
2023/05/17 05:52:37;;;;;;;1999.90;999.90;;;;;;;19.86;40.03;102814.75;5069973;28;20111;-66
2023/05/17 05:55:03;;;;;;;1999.90;999.90;;;;;;;19.45;40.55;102817.16;5064429;28;20059;-66
2023/05/17 05:57:28;;;;;;;1999.90;999.90;;;;;;;19.52;40.79;102824.09;5065433;28;20185;-66
2023/05/17 05:59:54;;;;;;;1999.90;999.90;;;;;;;19.13;41.06;102827.34;5065178;28;20103;-66
2023/05/17 06:02:20;;;;;;;1999.90;999.90;;;;;;;20.19;38.72;102830.94;5060640;28;20119;-67
2023/05/17 06:04:46;;;;;;;1999.90;999.90;;;;;;;18.90;40.52;102826.78;5063713;28;20036;-66
2023/05/17 06:07:13;;;;;;;1999.90;999.90;;;;;;;19.77;39.57;102835.19;5058761;28;20028;-66
2023/05/17 06:09:38;;;;;;;1999.90;999.90;;;;;;;19.22;40.71;102833.41;5066854;28;20037;-66
2023/05/17 06:12:04;;;;;;;1999.90;999.90;;;;;;;19.21;40.84;102829.88;5065073;28;20039;-66
2023/05/17 06:14:29;;;;;;;1999.90;999.90;;;;;;;18.94;40.94;102825.84;5069671;28;20036;-67
2023/05/17 06:16:55;;;;;;;1999.90;999.90;;;;;;;19.37;40.74;102827.00;5065074;28;20542;-67
2023/05/17 06:19:20;;;;;;;1999.90;999.90;;;;;;;18.37;42.41;102827.41;5053086;28;20037;-66
2023/05/17 06:21:45;;;;;;;1999.90;999.90;;;;;;;18.58;40.29;102833.34;5059326;28;20400;-66
2023/05/17 06:24:11;;;;;;;1999.90;999.90;;;;;;;20.92;38.07;102825.06;5051894;28;20032;-66
2023/05/17 06:26:36;;;;;;;1999.90;999.90;;;;;;;21.10;36.64;102829.97;5056794;28;20024;-67
2023/05/17 06:29:02;;;;;;;1999.90;999.90;;;;;;;22.11;35.42;102823.06;5057878;28;20469;-67
2023/05/17 06:31:28;;;;;;;1999.90;999.90;;;;;;;23.26;32.94;102835.72;5065976;28;20398;-66
2023/05/17 06:33:53;;;;;;;13.30;12.60;;;;;;;23.38;32.78;102830.88;5063236;28;20059;-67
2023/05/17 06:36:18;;;;;;;12.93;11.98;;;;;;;24.39;31.36;102840.78;5058565;28;20031;-67
2023/05/17 06:38:44;;;;;;;17.63;16.40;;;;;;;24.82;30.83;102844.53;5065347;28;20042;-67
2023/05/17 06:41:09;;;;;;;13.95;12.90;;;;;;;25.19;30.21;102832.38;5056440;28;20408;-67
2023/05/17 06:43:35;;;;;;;14.90;13.95;;;;;;;25.75;29.52;102832.78;5051272;28;20032;-67
2023/05/17 06:46:00;;;;;;;13.05;12.25;;;;;;;22.34;33.00;102840.22;5065344;28;20396;-67
2023/05/17 06:48:25;;;;;;;16.02;14.60;;;;;;;21.63;34.98;102842.06;5060395;28;20025;-67
2023/05/17 06:50:51;;;;;;;13.20;12.57;;;;;;;24.98;29.90;102833.25;5061874;28;20506;-67
2023/05/17 06:53:16;;;;;;;14.23;13.18;;;;;;;21.02;35.83;102850.53;5066602;28;20020;-67
2023/05/17 06:55:42;;;;;;;14.65;13.75;;;;;;;23.58;33.18;102848.03;5059267;28;20539;-67
2023/05/17 06:58:07;;;;;;;14.80;13.90;;;;;;;23.34;32.07;102849.69;5061968;28;20040;-66
2023/05/17 07:00:33;;;;;;;16.02;14.70;;;;;;;22.27;33.62;102854.56;5056407;28;20036;-67
2023/05/17 07:02:58;;;;;;;15.05;13.95;;;;;;;22.55;33.84;102860.06;5061947;28;20146;-67
2023/05/17 07:05:24;;;;;;;16.63;15.55;;;;;;;21.60;34.68;102864.28;5057619;28;20094;-67
2023/05/17 07:07:49;;;;;;;17.55;16.42;;;;;;;21.15;34.91;102869.75;5065537;28;20430;-67
2023/05/17 07:10:15;;;;;;;16.30;15.25;;;;;;;21.10;34.88;102869.84;5055638;28;20094;-67
2023/05/17 07:12:40;;;;;;;16.00;15.15;;;;;;;23.02;32.19;102870.22;5063567;28;20495;-67
2023/05/17 07:15:06;;;;;;;15.10;14.23;;;;;;;24.77;29.30;102878.63;5056748;28;20079;-68
2023/05/17 07:17:32;;;;;;;13.32;12.45;;;;;;;24.30;29.65;102873.19;5061659;28;20159;-68
2023/05/17 07:19:57;;;;;;;14.10;12.98;;;;;;;24.35;29.01;102865.88;5053034;28;20513;-66
2023/05/17 07:22:23;;;;;;;14.52;13.52;;;;;;;22.92;30.16;102871.44;5064611;28;20817;-66
2023/05/17 07:24:48;;;;;;;14.77;13.75;;;;;;;24.29;29.00;102868.75;5060976;28;20029;-67
2023/05/17 07:27:14;;;;;;;14.52;13.43;;;;;;;23.53;30.28;102871.31;5068227;28;20063;-66
2023/05/17 07:29:41;;;;;;;14.27;13.45;;;;;;;23.15;30.83;102866.28;5063211;28;20028;-66
2023/05/17 07:32:06;;;;;;;12.85;12.02;;;;;;;21.78;32.94;102878.06;5060724;28;20583;-67
2023/05/17 07:34:32;;;;;;;14.38;13.68;;;;;;;21.45;33.25;102881.47;5064664;28;20430;-66
2023/05/17 07:36:57;;;;;;;15.02;13.63;;;;;;;21.75;33.34;102883.44;5064322;28;20276;-66
2023/05/17 07:39:22;;;;;;;13.73;12.93;;;;;;;21.94;32.55;102886.50;5068134;28;20328;-67
2023/05/17 07:41:48;;;;;;;15.63;14.80;;;;;;;22.05;30.71;102887.13;5068296;28;20058;-67
2023/05/17 07:44:13;;;;;;;14.52;13.82;;;;;;;23.20;29.18;102896.38;5068430;28;20021;-67
2023/05/17 07:46:38;;;;;;;14.15;13.10;;;;;;;24.65;27.51;102890.63;5067767;28;20043;-67
2023/05/17 07:49:04;;;;;;;14.52;13.63;;;;;;;25.48;26.68;102886.53;5061108;28;20075;-72
2023/05/17 07:51:30;;;;;;;14.30;13.45;;;;;;;26.19;25.38;102888.94;5053672;28;20111;-73
2023/05/17 07:53:56;;;;;;;13.75;12.98;;;;;;;26.08;25.85;102885.88;5060065;28;20461;-72
2023/05/17 07:56:21;;;;;;;15.43;14.23;;;;;;;25.27;26.40;102890.09;5048319;28;20493;-73
2023/05/17 07:58:47;;;;;;;14.70;13.75;;;;;;;26.86;25.26;102894.91;5057458;28;20057;-74
2023/05/17 08:01:12;;;;;;;14.27;13.35;;;;;;;26.20;25.39;102885.34;5049101;28;20120;-72
2023/05/17 08:03:38;;;;;;;11.93;11.32;;;;;;;27.56;23.17;102884.41;5048670;28;20060;-71
2023/05/17 08:06:04;;;;;;;14.32;12.32;;;;;;;28.07;23.78;102897.97;5050531;28;20029;-73
2023/05/17 08:08:29;;;;;;;12.63;11.68;;;;;;;28.00;22.99;102904.63;5049663;28;20033;-74
2023/05/17 08:10:55;;;;;;;11.98;11.23;;;;;;;28.18;22.62;102905.47;5067180;28;20028;-73
2023/05/17 08:13:22;;;;;;;12.43;11.82;;;;;;;27.48;22.18;102897.34;5068663;28;20028;-73
2023/05/17 08:15:47;;;;;;;12.52;11.93;;;;;;;28.19;22.34;102904.53;5069414;28;20025;-73
2023/05/17 08:18:13;;;;;;;10.80;10.25;;;;;;;27.89;22.01;102902.44;5059906;28;20029;-73
2023/05/17 08:20:38;;;;;;;11.48;10.88;;;;;;;28.71;21.63;102910.75;5069084;28;20111;-73
2023/05/17 08:23:04;;;;;;;11.10;10.50;;;;;;;29.48;22.01;102911.84;5055602;28;20622;-73
2023/05/17 08:25:29;;;;;;;11.05;10.35;;;;;;;27.53;22.53;102910.53;5049194;28;20062;-73
2023/05/17 08:27:55;;;;;;;11.95;11.25;;;;;;;26.76;23.74;102912.34;5048764;28;20107;-74
2023/05/17 08:30:20;;;;;;;11.77;10.98;;;;;;;28.45;22.66;102915.69;5048143;28;20033;-74
2023/05/17 08:32:46;;;;;;;11.32;10.43;;;;;;;28.59;22.56;102907.75;5049480;28;20017;-73
2023/05/17 08:35:12;;;;;;;11.38;10.68;;;;;;;26.34;24.12;102907.97;5054049;28;20025;-73
2023/05/17 08:37:38;;;;;;;10.77;10.27;;;;;;;25.05;25.78;102915.84;5054891;28;20040;-73
2023/05/17 08:40:06;;;;;;;13.07;12.15;;;;;;;23.47;28.81;102915.09;5068658;28;20052;-73
2023/05/17 08:42:33;;;;;;;11.95;11.35;;;;;;;26.06;24.45;102901.13;5063562;28;20029;-74
2023/05/17 08:44:59;;;;;;;12.32;11.13;;;;;;;27.68;23.48;102907.06;5071880;28;20064;-73
2023/05/17 08:47:28;;;;;;;12.35;11.75;;;;;;;27.16;23.51;102906.91;5065984;28;20561;-74
2023/05/17 08:50:00;;;;;;;12.35;11.57;;;;;;;28.80;22.14;102899.50;5058483;28;20488;-74
2023/05/17 08:52:31;;;;;;;11.55;10.73;;;;;;;30.15;20.09;102906.13;5065541;28;20111;-73
2023/05/17 08:54:57;;;;;;;10.90;10.35;;;;;;;28.10;22.38;102899.63;5063402;28;20481;-73
2023/05/17 08:57:26;;;;;;;11.88;11.10;;;;;;;29.27;20.88;102922.03;5064587;28;20053;-73
2023/05/17 08:59:52;;;;;;;10.50;10.00;;;;;;;28.63;20.47;102915.66;5052291;28;20020;-73
2023/05/17 09:02:19;;;;;;;11.55;10.68;;;;;;;29.67;21.55;102916.16;5072534;28;20051;-73
2023/05/17 09:04:45;;;;;;;11.27;10.63;;;;;;;28.75;20.68;102909.63;5073721;28;20029;-73
2023/05/17 09:07:11;;;;;;;12.35;11.30;;;;;;;27.61;21.34;102912.84;5070282;28;20029;-74
2023/05/17 09:09:36;;;;;;;10.85;10.23;;;;;;;28.94;20.83;102912.19;5071579;28;20392;-73
2023/05/17 09:12:03;;;;;;;10.90;10.30;;;;;;;28.14;22.04;102911.94;5071946;28;20020;-73
2023/05/17 09:14:35;;;;;;;11.80;11.00;;;;;;;29.00;20.84;102916.34;5070995;28;20031;-74
2023/05/17 09:17:00;;;;;;;12.05;11.20;;;;;;;28.92;21.58;102911.38;5071944;28;20555;-73
2023/05/17 09:19:26;;;;;;;11.15;10.20;;;;;;;28.08;22.00;102917.63;5073017;28;20101;-73
2023/05/17 09:21:53;;;;;;;11.10;10.40;;;;;;;28.32;22.50;102920.00;5070931;28;20392;-73
2023/05/17 09:24:27;;;;;;;11.00;10.45;;;;;;;28.64;19.65;102915.59;5054856;28;20032;-73
2023/05/17 09:26:52;;;;;;;11.60;11.02;;;;;;;27.79;20.71;102921.78;5052098;28;20032;-73
2023/05/17 09:29:17;;;;;;;11.40;10.82;;;;;;;31.19;19.21;102908.63;5054644;28;20029;-73
2023/05/17 09:31:43;;;;;;;12.80;11.93;;;;;;;29.51;18.82;102906.28;5051315;28;20423;-73
2023/05/17 09:34:09;;;;;;;12.00;11.10;;;;;;;27.18;20.78;102921.16;5054955;28;20369;-73
2023/05/17 09:36:36;;;;;;;10.80;10.30;;;;;;;28.12;20.42;102913.84;5051767;28;20112;-73
2023/05/17 09:39:05;;;;;;;11.98;10.98;;;;;;;29.97;19.99;102913.50;5053334;28;20133;-73
2023/05/17 09:41:31;;;;;;;12.10;11.48;;;;;;;30.45;18.49;102913.31;5052068;28;20029;-73
2023/05/17 09:44:02;;;;;;;11.65;11.05;;;;;;;31.12;18.47;102918.09;5068471;28;20032;-73
2023/05/17 09:46:32;;;;;;;10.68;10.18;;;;;;;28.85;19.58;102918.97;5052225;28;20025;-73
2023/05/17 09:49:01;;;;;;;11.88;11.13;;;;;;;27.53;21.30;102921.28;5051682;28;20473;-74
2023/05/17 09:51:34;;;;;;;12.93;12.10;;;;;;;29.28;20.78;102913.88;5067786;28;20024;-73
2023/05/17 09:54:00;;;;;;;10.88;10.27;;;;;;;28.92;20.46;102906.88;5054903;28;20024;-72
2023/05/17 09:56:29;;;;;;;11.18;10.57;;;;;;;31.02;19.47;102911.50;5049409;28;20400;-71
2023/05/17 09:58:55;;;;;;;11.93;11.32;;;;;;;28.43;20.13;102929.22;5058465;28;20127;-72
2023/05/17 10:01:21;;;;;;;12.57;11.70;;;;;;;27.67;22.49;102917.91;5060109;28;20100;-71
2023/05/17 10:03:47;;;;;;;11.57;10.88;;;;;;;28.81;20.73;102917.38;5050238;28;20021;-71
2023/05/17 10:06:14;;;;;;;10.88;10.27;;;;;;;30.02;20.11;102907.81;5064301;28;20071;-71
2023/05/17 10:08:43;;;;;;;12.05;11.10;;;;;;;29.57;21.02;102911.31;5058568;28;20032;-71
2023/05/17 10:11:10;;;;;;;10.80;10.30;;;;;;;28.84;20.76;102917.22;5055974;28;20124;-71
2023/05/17 10:13:41;;;;;;;11.35;10.73;;;;;;;29.10;20.87;102918.44;5065775;28;20020;-71
2023/05/17 10:16:06;;;;;;;11.23;10.52;;;;;;;29.25;20.48;102922.13;5069115;28;20032;-72
2023/05/17 10:18:32;;;;;;;12.32;11.63;;;;;;;28.88;20.30;102912.50;5054959;28;20032;-71
2023/05/17 10:21:00;;;;;;;10.93;10.43;;;;;;;29.75;20.45;102908.50;5054679;28;20056;-66
2023/05/17 10:23:26;;;;;;;12.35;11.60;;;;;;;28.24;20.68;102915.88;5054711;28;20335;-67
2023/05/17 10:25:52;;;;;;;11.00;10.48;;;;;;;30.84;18.91;102909.03;5057256;28;20107;-67
2023/05/17 10:28:19;;;;;;;12.90;12.00;;;;;;;30.51;19.61;102910.22;5054036;28;20053;-67
2023/05/17 10:30:47;;;;;;;12.82;12.02;;;;;;;30.75;19.12;102904.25;5051653;28;20037;-66
2023/05/17 10:33:14;;;;;;;12.75;11.95;;;;;;;28.61;20.69;102908.53;5055737;28;20016;-66
2023/05/17 10:35:42;;;;;;;11.13;10.55;;;;;;;29.05;21.01;102914.28;5071575;28;20629;-67
2023/05/17 10:38:08;;;;;;;12.55;11.82;;;;;;;28.42;21.98;102915.88;5049375;28;20028;-67
2023/05/17 10:40:35;;;;;;;12.65;11.98;;;;;;;28.94;22.91;102917.56;5060762;28;20685;-66
2023/05/17 10:43:02;;;;;;;12.43;11.38;;;;;;;29.08;21.66;102912.25;5056383;28;20068;-67
2023/05/17 10:45:27;;;;;;;11.65;10.90;;;;;;;26.65;24.84;102918.16;5053833;28;20025;-67
2023/05/17 10:47:53;;;;;;;10.77;10.18;;;;;;;25.63;24.52;102910.97;5060003;28;20484;-67
2023/05/17 10:50:23;;;;;;;11.95;11.25;;;;;;;27.95;22.71;102912.00;5055177;28;20039;-66
2023/05/17 10:52:50;;;;;;;11.43;10.50;;;;;;;28.26;22.22;102916.69;5054312;28;20033;-66